createdAt,value
2023-03-12T00:01:30.335Z,14.7
2023-03-12T00:03:28.460Z,12.8
2023-03-12T00:05:29.896Z,19.4
2023-03-12T00:07:31.437Z,8.5
2023-03-12T00:20:46.285Z,9.9
2023-03-12T00:22:47.836Z,6.8
2023-03-12T00:24:49.376Z,8.4
2023-03-12T00:26:50.949Z,8.2
2023-03-12T00:28:55.709Z,8.6
2023-03-12T00:30:57.345Z,9
2023-03-12T00:32:58.785Z,7.9
2023-03-12T00:35:00.326Z,5.2
2023-03-12T00:37:01.864Z,7.7
2023-03-12T00:41:04.937Z,5.6
2023-03-12T00:43:09.740Z,11.8
2023-03-12T00:45:11.256Z,6.3
2023-03-12T00:47:12.806Z,9.5
2023-03-12T00:49:14.322Z,6.1
2023-03-12T00:51:15.888Z,5
2023-03-12T00:53:17.415Z,8.4
2023-03-12T00:55:18.946Z,3.8
2023-03-12T00:57:23.724Z,4.7
2023-03-12T01:01:28.343Z,5.6
2023-03-12T01:03:29.832Z,4.6
2023-03-12T01:05:32.511Z,10.8
2023-03-12T01:07:32.895Z,4.8
2023-03-12T01:09:34.481Z,3.5
2023-03-12T01:13:40.749Z,5.4
2023-03-12T01:15:42.340Z,4.4
2023-03-12T01:18:46.229Z,7.5
2023-03-12T01:20:47.796Z,7.1
2023-03-12T01:22:49.304Z,2.9
2023-03-12T01:24:54.077Z,4.6
2023-03-12T01:26:55.644Z,4.1
2023-03-12T01:28:57.174Z,5
2023-03-12T01:30:58.718Z,5.6
2023-03-12T01:33:00.269Z,4.8
2023-03-12T01:35:01.813Z,8.9
2023-03-12T01:37:03.344Z,9.5
2023-03-12T01:39:08.153Z,6.7
2023-03-12T01:41:09.700Z,11.8
2023-03-12T01:43:11.225Z,4.4
2023-03-12T01:51:17.419Z,5.2
2023-03-12T01:53:22.222Z,3.4
2023-03-12T01:55:23.772Z,7.9
2023-03-12T01:57:25.318Z,4.5
2023-03-12T01:59:26.889Z,3.4
2023-03-12T02:01:28.478Z,5.7
2023-03-12T02:03:29.962Z,4.7
2023-03-12T02:05:31.529Z,3.5
2023-03-12T02:07:36.297Z,4.4
2023-03-12T02:09:37.873Z,7.8
2023-03-12T02:11:39.415Z,3.3
2023-03-12T02:14:08.011Z,7.9
2023-03-12T02:16:09.610Z,6.2
2023-03-12T02:18:11.124Z,4.5
2023-03-12T02:22:17.460Z,2.7
2023-03-12T02:28:22.134Z,3.6
2023-03-12T02:34:30.059Z,2
2023-03-12T02:36:31.632Z,12.1
2023-03-12T02:38:33.186Z,5.6
2023-03-12T02:40:34.727Z,5.2
2023-03-12T02:54:48.900Z,3.3
2023-03-12T02:58:52.005Z,4.5
2023-03-12T03:00:53.578Z,6.5
2023-03-12T03:07:01.519Z,4.8
2023-03-12T03:08:03.878Z,3.9
2023-03-12T03:10:05.473Z,11.6
2023-03-12T03:12:07.021Z,12.5
2023-03-12T03:14:08.560Z,5.8
2023-03-12T03:16:13.478Z,7.6
2023-03-12T03:18:14.925Z,16.6
2023-03-12T03:20:16.493Z,5.2
2023-03-12T03:22:18.041Z,3.9
2023-03-12T03:24:19.590Z,5.3
2023-03-12T03:26:21.145Z,9.2
2023-03-12T03:28:22.719Z,12
2023-03-12T03:30:27.522Z,8.8
2023-03-12T03:32:29.113Z,12.2
2023-03-12T03:34:30.641Z,3.8
2023-03-12T03:38:33.744Z,3.4
2023-03-12T03:40:35.314Z,6.7
2023-03-12T03:42:36.861Z,4.6
2023-03-12T03:44:41.672Z,8.1
2023-03-12T03:46:43.212Z,5.4
2023-03-12T03:48:44.796Z,3.6
2023-03-12T03:50:46.345Z,7.1
2023-03-12T03:52:47.902Z,10.4
2023-03-12T03:54:49.469Z,5.8
2023-03-12T03:56:51.020Z,5.7
2023-03-12T03:58:55.831Z,3.4
2023-03-12T04:00:57.397Z,4.3
2023-03-12T04:04:01.346Z,7
2023-03-12T04:06:02.950Z,7.6
2023-03-12T04:16:13.973Z,6.1
2023-03-12T04:18:15.551Z,3.4
2023-03-12T04:20:17.028Z,6.3
2023-03-12T04:22:18.594Z,7.2
2023-03-12T04:24:20.169Z,7.8
2023-03-12T04:26:24.954Z,5.5
2023-03-12T04:28:26.512Z,9
2023-03-12T04:30:28.068Z,4.4
2023-03-12T04:32:29.672Z,3.1
2023-03-12T04:34:31.171Z,7.8
2023-03-12T04:38:34.274Z,5.1
2023-03-12T04:42:40.609Z,5.6
2023-03-12T04:44:42.175Z,11.9
2023-03-12T04:46:43.884Z,2.2
2023-03-12T04:48:45.272Z,4.7
2023-03-12T04:50:46.837Z,3.2
2023-03-12T04:52:48.373Z,11.4
2023-03-12T04:54:53.156Z,4.1
2023-03-12T04:56:54.725Z,4.1
2023-03-12T04:58:56.300Z,4
2023-03-12T05:06:03.357Z,3.2
2023-03-12T05:08:08.147Z,5.7
2023-03-12T05:10:09.690Z,6.3
2023-03-12T05:12:11.253Z,3.3
2023-03-12T05:14:12.822Z,5.3
2023-03-12T05:16:14.450Z,14.8
2023-03-12T05:18:15.942Z,2.3
2023-03-12T05:20:17.541Z,2.3
2023-03-12T05:22:22.323Z,10.6
2023-03-12T05:24:23.910Z,3.8
2023-03-12T05:26:25.462Z,2.4
2023-03-12T05:28:27.019Z,7.4
2023-03-12T05:30:28.610Z,5.7
2023-03-12T05:34:31.736Z,2.4
2023-03-12T05:38:38.120Z,4.6
2023-03-12T05:40:39.674Z,1.7
2023-03-12T05:42:41.261Z,1.2
2023-03-12T05:44:42.806Z,3
2023-03-12T05:46:44.403Z,2.3
2023-03-12T05:48:45.970Z,5.6
2023-03-12T05:50:50.732Z,2.9
2023-03-12T05:52:52.310Z,9.2
2023-03-12T05:54:53.885Z,3.6
2023-03-12T05:57:22.444Z,2.3
2023-03-12T05:59:24.031Z,3.4
2023-03-12T06:01:25.588Z,3.2
2023-03-12T06:03:30.413Z,6.9
2023-03-12T06:05:31.954Z,3.7
2023-03-12T06:07:33.486Z,4.6
2023-03-12T06:09:35.066Z,5.3
2023-03-12T06:11:36.620Z,3.8
2023-03-12T06:13:38.155Z,6.6
2023-03-12T06:15:39.735Z,4.3
2023-03-12T06:17:44.541Z,4.5
2023-03-12T06:19:46.066Z,5.8
2023-03-12T06:21:47.634Z,6.1
2023-03-12T06:23:49.185Z,6.5
2023-03-12T06:25:50.757Z,5.7
2023-03-12T06:27:52.309Z,2.3
2023-03-12T06:29:53.849Z,3.2
2023-03-12T06:36:01.775Z,6.9
2023-03-12T06:38:03.274Z,3.8
2023-03-12T06:40:04.840Z,3.8
2023-03-12T06:46:12.784Z,11.1
2023-03-12T06:53:21.350Z,2.8
2023-03-12T06:57:24.398Z,3.4
2023-03-12T07:03:32.293Z,8.1
2023-03-12T07:13:43.336Z,8.6
2023-03-12T07:15:45.055Z,3.8
2023-03-12T07:17:46.475Z,5.4
2023-03-12T07:19:49.806Z,2.3
2023-03-12T07:23:51.153Z,13
2023-03-12T07:25:52.703Z,5.8
2023-03-12T07:27:57.530Z,8.3
2023-03-12T07:34:02.312Z,3.4
2023-03-12T07:36:03.876Z,10.9
2023-03-12T07:47:24.030Z,2.9
2023-03-12T07:49:18.854Z,4
2023-03-12T07:51:20.415Z,3.1
2023-03-12T08:01:31.634Z,4.2
2023-03-12T08:03:33.477Z,3.8
2023-03-12T08:05:34.794Z,5
2023-03-12T08:07:36.376Z,3.4
2023-03-12T08:09:41.137Z,4.5
2023-03-12T08:11:42.809Z,10.1
2023-03-12T08:13:44.436Z,6.5
2023-03-12T08:15:46.471Z,7.8
2023-03-12T08:17:47.785Z,10.5
2023-03-12T08:19:49.035Z,9.3
2023-03-12T08:21:50.607Z,8.6
2023-03-12T08:23:55.429Z,5.3
2023-03-12T08:25:57.014Z,8.1
2023-03-12T08:27:58.618Z,7
2023-03-12T08:30:00.186Z,12
2023-03-12T08:32:04.890Z,5.3
2023-03-12T08:34:03.362Z,9
2023-03-12T08:36:04.962Z,7.5
2023-03-12T08:40:11.355Z,8.2
2023-03-12T08:42:12.939Z,9.7
2023-03-12T08:43:15.346Z,12.2
2023-03-12T08:45:16.903Z,6.2
2023-03-12T08:47:18.508Z,11.4
2023-03-12T08:49:20.106Z,3.4
2023-03-12T08:51:24.905Z,5.4
2023-03-12T08:53:26.467Z,5.6
2023-03-12T08:55:28.089Z,4.7
2023-03-12T08:57:29.667Z,8.5
2023-03-12T08:59:31.273Z,8.7
2023-03-12T09:01:32.854Z,4.9
2023-03-12T09:03:34.432Z,8.3
2023-03-12T09:07:40.844Z,6.1
2023-03-12T09:09:42.447Z,9.3
2023-03-12T09:11:44.057Z,5.6
2023-03-12T09:14:08.594Z,5.9
2023-03-12T09:15:47.249Z,8.3
2023-03-12T09:17:48.856Z,7.4
2023-03-12T09:19:53.682Z,13.4
2023-03-12T09:21:55.283Z,7.3
2023-03-12T09:23:56.878Z,6.3
2023-03-12T09:25:58.481Z,7.3
2023-03-12T09:28:00.125Z,7.7
2023-03-12T09:30:01.701Z,11.8
2023-03-12T09:32:05.620Z,8.4
2023-03-12T09:36:09.794Z,8.6
2023-03-12T09:38:11.380Z,7.1
2023-03-12T09:40:39.943Z,7.2
2023-03-12T09:42:41.555Z,5.1
2023-03-12T09:46:48.053Z,11.1
2023-03-12T09:48:49.596Z,7.1
2023-03-12T09:54:54.481Z,9.4
2023-03-12T10:03:04.290Z,7.8
2023-03-12T10:09:09.168Z,9.2
2023-03-12T10:11:10.836Z,9.7
2023-03-12T10:13:12.472Z,12.6
2023-03-12T10:15:17.344Z,9.6
2023-03-12T10:17:19.008Z,12
2023-03-12T10:19:20.699Z,8.4
2023-03-12T10:21:22.342Z,8
2023-03-12T10:23:23.959Z,12.7
2023-03-12T10:25:25.630Z,12.5
2023-03-12T10:27:27.277Z,12.6
2023-03-12T10:29:32.189Z,14.8
2023-03-12T10:31:33.826Z,8.9
2023-03-12T10:33:35.497Z,10.6
2023-03-12T10:34:37.978Z,11.7
2023-03-12T10:36:39.601Z,8.9
2023-03-12T10:38:41.262Z,11.5
2023-03-12T10:40:42.946Z,12.8
2023-03-12T10:42:47.835Z,12.2
2023-03-12T10:44:49.518Z,20.7
2023-03-12T10:48:52.850Z,11.7
2023-03-12T10:50:54.528Z,13.3
2023-03-12T10:52:56.191Z,12
2023-03-12T10:54:57.870Z,14.5
2023-03-12T10:59:04.485Z,11.9
2023-03-12T11:01:06.195Z,14.8
2023-03-12T11:03:07.785Z,9.9
2023-03-12T11:05:09.478Z,16.8
2023-03-12T11:07:11.159Z,23.6
2023-03-12T11:09:16.972Z,13.1
2023-03-12T11:11:17.780Z,15.3
2023-03-12T11:13:19.461Z,26.6
2023-03-12T11:15:21.170Z,10.9
2023-03-12T11:19:24.541Z,17.1
2023-03-12T11:21:26.239Z,15.9
2023-03-12T11:23:27.931Z,12.1
2023-03-12T11:25:32.842Z,14.9
2023-03-12T11:27:34.583Z,17.2
2023-03-12T11:29:36.311Z,19.8
2023-03-12T11:36:43.871Z,11.6
2023-03-12T11:38:48.804Z,16.2
2023-03-12T11:40:50.508Z,17.8
2023-03-12T11:42:52.224Z,17.3
2023-03-12T11:44:53.938Z,20.2
2023-03-12T11:46:55.734Z,17.6
2023-03-12T11:48:57.369Z,18.6
2023-03-12T11:50:59.097Z,14.6
2023-03-12T11:53:04.050Z,15.9
2023-03-12T11:55:05.763Z,18.6
2023-03-12T11:57:07.486Z,16.8
2023-03-12T11:59:09.215Z,15.3
2023-03-12T12:01:10.939Z,9.3
2023-03-12T12:03:12.700Z,20.2
2023-03-12T12:05:14.361Z,12.5
2023-03-12T12:07:19.325Z,21.1
2023-03-12T12:13:24.515Z,19.6
2023-03-12T12:15:26.234Z,103.7
2023-03-12T12:23:36.371Z,21.3
2023-03-12T12:25:38.116Z,13.4
2023-03-12T12:26:40.610Z,20.8
2023-03-12T12:28:42.351Z,20.6
2023-03-12T12:30:44.066Z,22.9
2023-03-12T12:32:45.851Z,13
2023-03-12T12:34:50.733Z,10.7
2023-03-12T12:36:52.467Z,22
2023-03-12T12:38:54.210Z,16.2
2023-03-12T12:40:55.930Z,24.5
2023-03-12T12:42:57.667Z,26.8
2023-03-12T12:45:00.963Z,13.3
2023-03-12T12:47:02.615Z,15.5
2023-03-12T12:49:07.614Z,22.1
2023-03-12T12:51:09.419Z,15.1
2023-03-12T12:53:11.100Z,21.9
2023-03-12T12:55:12.821Z,20.3
2023-03-12T12:57:14.569Z,28.6
2023-03-12T12:59:16.364Z,22.6
2023-03-12T13:01:18.185Z,18.5
2023-03-12T13:03:23.048Z,17.5
2023-03-12T13:05:24.782Z,14.5
2023-03-12T13:07:28.098Z,23.4
2023-03-12T13:11:29.984Z,20.3
2023-03-12T13:13:31.711Z,21.2
2023-03-12T13:19:40.629Z,21.2
2023-03-12T13:21:41.901Z,12.2
2023-03-12T13:24:10.544Z,13.6
2023-03-12T13:26:12.277Z,17.6
2023-03-12T13:28:14.024Z,16
2023-03-12T13:32:20.756Z,12.8
2023-03-12T13:34:22.546Z,19.6
2023-03-12T13:36:24.254Z,16.7
2023-03-12T13:38:25.980Z,26.2
2023-03-12T13:40:27.728Z,15.1
2023-03-12T13:42:29.491Z,25.8
2023-03-12T13:44:34.466Z,20
2023-03-12T13:50:39.694Z,27.9
2023-03-12T13:52:41.513Z,45.4
2023-03-12T13:58:49.941Z,12.1
2023-03-12T14:00:51.789Z,27.4
2023-03-12T14:02:53.457Z,32.4
2023-03-12T14:04:57.751Z,29.6
2023-03-12T14:06:56.944Z,25.4
2023-03-12T14:08:58.696Z,23.8
2023-03-12T14:11:00.434Z,34.7
2023-03-12T14:13:05.445Z,36.3
2023-03-12T14:15:07.183Z,36.3
2023-03-12T14:18:11.443Z,34.1
2023-03-12T14:20:13.240Z,30.9
2023-03-12T14:22:14.918Z,28.3
2023-03-12T14:26:21.722Z,41.6
2023-03-12T14:28:23.448Z,15.4
2023-03-12T14:30:25.194Z,27.1
2023-03-12T14:32:27.055Z,36.5
2023-03-12T14:34:28.748Z,13
2023-03-12T14:36:30.502Z,21.8
2023-03-12T14:38:32.280Z,18.5
2023-03-12T14:40:37.315Z,20.9
2023-03-12T14:42:39.063Z,33
2023-03-12T14:44:40.851Z,15.8
2023-03-12T14:46:42.666Z,32.5
2023-03-12T14:48:44.406Z,20.4
2023-03-12T14:50:46.174Z,29.8
2023-03-12T14:52:47.966Z,30.3
2023-03-12T14:54:52.983Z,36.7
2023-03-12T14:56:54.797Z,25.4
2023-03-12T14:58:56.540Z,19.7
2023-03-12T15:03:00.129Z,26.8
2023-03-12T15:05:02.010Z,16.1
2023-03-12T15:07:03.686Z,16
2023-03-12T15:13:12.279Z,22.6
2023-03-12T15:20:20.132Z,15.8
2023-03-12T15:28:30.508Z,11.6
2023-03-12T15:30:32.274Z,17.8
2023-03-12T15:32:34.340Z,14.6
2023-03-12T15:36:40.875Z,20.4
2023-03-12T15:38:42.659Z,29.7
2023-03-12T15:40:44.447Z,13.7
2023-03-12T15:46:49.868Z,14.6
2023-03-12T15:48:51.544Z,9.5
2023-03-12T15:50:56.582Z,36.3
2023-03-12T15:52:58.365Z,5.5
2023-03-12T15:55:00.147Z,13.6
2023-03-12T15:57:01.919Z,19.3
2023-03-12T16:03:07.294Z,24.7
2023-03-12T16:05:12.323Z,19.3
2023-03-12T16:10:18.367Z,17.7
2023-03-12T16:12:20.123Z,14
2023-03-12T16:14:21.910Z,28.9
2023-03-12T16:20:30.483Z,21.1
2023-03-12T16:22:32.244Z,22.5
2023-03-12T16:24:34.022Z,22.7
2023-03-12T16:26:35.785Z,19.5
2023-03-12T16:28:37.563Z,17.3
2023-03-12T16:30:39.348Z,27.2
2023-03-12T16:32:44.363Z,21.9
2023-03-12T16:34:46.131Z,26.8
2023-03-12T16:36:47.888Z,25.9
2023-03-12T16:38:49.642Z,33.2
2023-03-12T16:40:51.755Z,29.2
2023-03-12T16:44:55.487Z,27
2023-03-12T16:47:00.092Z,27.4
2023-03-12T16:49:01.820Z,25.2
2023-03-12T16:59:10.565Z,40.7
2023-03-12T17:07:47.723Z,27.2
2023-03-12T17:09:49.483Z,19.8
2023-03-12T17:11:51.254Z,17.4
2023-03-12T17:13:56.406Z,31.2
2023-03-12T17:15:58.064Z,14.7
2023-03-12T17:17:59.767Z,7
2023-03-12T17:20:01.548Z,27.9
2023-03-12T17:22:03.281Z,32.9
2023-03-12T17:24:05.074Z,26.5
2023-03-12T17:26:06.805Z,37.4
2023-03-12T17:28:11.813Z,17.7
2023-03-12T17:30:13.586Z,17.3
2023-03-12T17:36:18.844Z,8.6
2023-03-12T17:38:20.603Z,24.4
2023-03-12T17:40:22.337Z,30
2023-03-12T17:42:27.334Z,26.4
2023-03-12T17:44:29.097Z,23.7
2023-03-12T17:46:30.975Z,43.5
2023-03-12T17:48:32.603Z,28.2
2023-03-12T17:50:34.344Z,22.9
2023-03-12T17:52:36.110Z,32.2
2023-03-12T17:54:37.904Z,20.2
2023-03-12T17:56:42.857Z,42.7
2023-03-12T17:58:44.617Z,23.4
2023-03-12T18:00:46.376Z,36.3
2023-03-12T18:03:50.635Z,12
2023-03-12T18:09:53.304Z,29
2023-03-12T18:18:00.334Z,20
2023-03-12T18:22:03.879Z,37.2
2023-03-12T18:26:10.635Z,23.6
2023-03-12T18:28:12.422Z,19.8
2023-03-12T18:36:20.998Z,19.9
2023-03-12T18:38:25.961Z,6.5
2023-03-12T18:40:27.735Z,19.3
2023-03-12T18:42:29.505Z,17.4
2023-03-12T18:44:31.290Z,16.3
2023-03-12T18:46:33.126Z,30.3
2023-03-12T18:48:34.784Z,27.9
2023-03-12T18:50:36.531Z,19
2023-03-12T18:52:41.538Z,5.5
2023-03-12T18:54:43.304Z,11.2
2023-03-12T18:56:45.068Z,13.2
2023-03-12T18:57:47.618Z,21.7
2023-03-12T18:59:49.334Z,20
2023-03-12T19:01:51.122Z,17.2
2023-03-12T19:03:52.960Z,8.2
2023-03-12T19:07:59.653Z,18.3
2023-03-12T19:10:01.387Z,14.8
2023-03-12T19:14:04.894Z,4.6
2023-03-12T19:16:06.713Z,16.8
2023-03-12T19:18:08.409Z,9.4
2023-03-12T19:20:13.423Z,11.9
2023-03-12T19:22:15.190Z,14.7
2023-03-12T19:24:16.947Z,6.1
2023-03-12T19:26:18.722Z,11
2023-03-12T19:28:20.487Z,14.9
2023-03-12T19:30:22.242Z,8.5
2023-03-12T19:32:27.777Z,10.5
2023-03-12T19:34:28.984Z,11.1
2023-03-12T19:36:30.752Z,14.1
2023-03-12T19:38:32.525Z,4.9
2023-03-12T19:40:34.265Z,5.6
2023-03-12T19:42:36.041Z,9.1
2023-03-12T19:44:37.795Z,14
2023-03-12T19:46:39.531Z,8.5
2023-03-12T19:48:44.555Z,11
2023-03-12T19:50:46.315Z,12.7
2023-03-12T19:52:48.051Z,13
2023-03-12T19:53:50.550Z,3.4
2023-03-12T19:55:52.437Z,11
2023-03-12T19:57:54.043Z,8.2
2023-03-12T19:59:55.815Z,4.7
2023-03-12T20:02:00.862Z,8.9
2023-03-12T20:04:02.574Z,9
2023-03-12T20:06:04.322Z,13.9
2023-03-12T20:08:06.067Z,12.3
2023-03-12T20:10:07.839Z,13
2023-03-12T20:12:09.604Z,10.7
2023-03-12T20:16:16.366Z,17.8
2023-03-12T20:18:18.095Z,24.6
2023-03-12T20:20:19.835Z,16.6
2023-03-12T20:22:21.564Z,19.1
2023-03-12T20:26:25.067Z,16.1
2023-03-12T20:28:26.836Z,26.8
2023-03-12T20:30:31.806Z,14.6
2023-03-12T20:32:33.611Z,17.6
2023-03-12T20:34:35.338Z,23
2023-03-12T20:36:37.080Z,16.3
2023-03-12T20:38:38.830Z,20.6
2023-03-12T20:40:40.612Z,40
2023-03-12T20:42:42.341Z,65.4
2023-03-12T20:44:47.357Z,26.3
2023-03-12T20:46:49.088Z,30.1
2023-03-12T20:48:50.824Z,24.7
2023-03-12T20:51:19.455Z,28.9
2023-03-12T20:53:21.228Z,34.5
2023-03-12T20:55:22.999Z,26
2023-03-12T20:57:27.968Z,24.4
2023-03-12T20:59:29.724Z,27.5
2023-03-12T21:01:31.596Z,18.5
2023-03-12T21:03:33.236Z,32.2
2023-03-12T21:05:34.976Z,15.8
2023-03-12T21:07:36.741Z,32.3
2023-03-12T21:09:38.489Z,27.3
2023-03-12T21:11:43.500Z,20.4
2023-03-12T21:13:45.254Z,48.4
2023-03-12T21:15:47.008Z,25
2023-03-12T21:17:48.803Z,30.3
2023-03-12T21:19:50.521Z,31.3
2023-03-12T21:21:52.266Z,23.5
2023-03-12T21:25:59.011Z,16
2023-03-12T21:28:00.742Z,20.9
2023-03-12T21:30:02.516Z,18.4
2023-03-12T21:32:04.245Z,31
2023-03-12T21:34:08.962Z,28.2
2023-03-12T21:36:07.758Z,35.4
2023-03-12T21:38:09.502Z,32.8
2023-03-12T21:40:14.493Z,19.6
2023-03-12T21:45:20.494Z,14.7
2023-03-12T21:47:22.240Z,22.4
2023-03-12T21:49:24.163Z,20.5
2023-03-12T21:51:25.735Z,25.1
2023-03-12T21:53:30.728Z,23.2
2023-03-12T21:55:32.492Z,17.6
2023-03-12T21:57:34.233Z,19.3
2023-03-12T22:03:39.513Z,20.3
2023-03-12T22:05:41.237Z,23.6
2023-03-12T22:11:49.762Z,17.2
2023-03-12T22:13:51.491Z,22.9
2023-03-12T22:22:01.746Z,38.5
2023-03-12T22:30:08.722Z,16
2023-03-12T22:32:10.478Z,28.8
2023-03-12T22:34:12.213Z,26.1
2023-03-12T22:36:17.286Z,20
2023-03-12T22:38:18.947Z,17.8
2023-03-12T22:40:20.698Z,27.2
2023-03-12T22:41:23.187Z,21.6
2023-03-12T22:43:24.934Z,16.6
2023-03-12T22:45:26.691Z,15.4
2023-03-12T22:47:28.439Z,20.7
2023-03-12T22:49:33.385Z,17.8
2023-03-12T22:51:35.148Z,19.7
2023-03-12T22:53:36.884Z,22.3
2023-03-12T22:55:38.684Z,14.9
2023-03-12T22:57:40.373Z,25.2
2023-03-12T22:59:42.106Z,20.5
2023-03-12T23:05:50.601Z,25.2
2023-03-12T23:07:52.352Z,25.7
2023-03-12T23:09:54.099Z,16.6
2023-03-12T23:18:04.377Z,28.5
2023-03-12T23:24:09.621Z,31.5
2023-03-12T23:26:11.341Z,31.1
2023-03-12T23:28:13.101Z,17.8
2023-03-12T23:30:14.850Z,18.6
2023-03-12T23:32:19.889Z,22.2
2023-03-12T23:34:21.635Z,23.5
2023-03-12T23:36:23.372Z,16.6
2023-03-12T23:37:25.836Z,22.6
2023-03-12T23:43:31.129Z,11.2
2023-03-12T23:47:37.864Z,18.3
2023-03-12T23:49:39.618Z,27.8
2023-03-12T23:51:41.369Z,16.8
2023-03-12T23:55:44.890Z,9.6
2023-03-12T23:57:46.644Z,21.1
